Time;durP1;ratioP1;P1;durP2;ratioP2;P2;SDS_P1;SDS_P2;PMS_P1;PMS_P2;Temp;Humidity;BMP_temperature;BMP_pressure;BME280_temperature;BME280_humidity;BME280_pressure;Samples;Min_cycle;Max_cycle;Signal;HPM_P1;HPM_P2
2022/03/26 00:01:40;;;;;;;28.75;13.95;;;12.50;34.40;;;;;;5042047;28;20061;-42
2022/03/26 00:04:08;;;;;;;29.75;14.35;;;12.50;34.40;;;;;;5042441;28;20063;-43
2022/03/26 00:06:35;;;;;;;29.33;13.77;;;12.50;34.50;;;;;;5043114;28;20049;-43
2022/03/26 00:09:03;;;;;;;36.92;16.15;;;12.40;34.60;;;;;;5045220;28;20061;-43
2022/03/26 00:11:32;;;;;;;40.40;15.82;;;12.40;34.70;;;;;;5044380;28;20048;-43
2022/03/26 00:13:59;;;;;;;39.95;16.27;;;12.40;34.90;;;;;;5042812;28;20036;-43
2022/03/26 00:16:27;;;;;;;30.33;14.85;;;12.40;35.10;;;;;;5043272;28;20057;-44
2022/03/26 00:18:54;;;;;;;30.90;14.48;;;12.40;35.10;;;;;;5045153;28;20052;-43
2022/03/26 00:21:22;;;;;;;38.65;17.20;;;12.30;35.20;;;;;;5043735;28;20124;-43
2022/03/26 00:23:49;;;;;;;36.65;15.98;;;12.30;35.20;;;;;;5042409;28;20420;-44
2022/03/26 00:26:17;;;;;;;42.30;18.60;;;12.30;35.30;;;;;;5043939;28;20530;-43
2022/03/26 00:28:46;;;;;;;37.10;16.80;;;12.30;35.50;;;;;;5043977;28;20053;-43
2022/03/26 00:31:13;;;;;;;30.98;14.75;;;12.30;35.70;;;;;;5042684;28;20514;-43
2022/03/26 00:33:42;;;;;;;32.97;14.13;;;12.20;35.50;;;;;;5043546;28;20061;-43
2022/03/26 00:36:09;;;;;;;27.67;13.68;;;12.20;35.50;;;;;;5041834;28;20066;-43
2022/03/26 00:38:37;;;;;;;32.38;14.23;;;12.20;35.50;;;;;;5043168;28;20053;-43
2022/03/26 00:41:04;;;;;;;24.13;13.00;;;12.20;35.50;;;;;;5043289;28;20419;-45
2022/03/26 00:43:32;;;;;;;29.23;15.18;;;12.20;35.50;;;;;;5042692;28;20057;-44
2022/03/26 00:46:00;;;;;;;35.65;15.27;;;12.20;35.50;;;;;;5041845;28;20377;-44
2022/03/26 00:48:28;;;;;;;25.85;13.45;;;12.20;35.70;;;;;;5044667;28;20053;-43
2022/03/26 00:50:55;;;;;;;26.30;13.15;;;12.10;35.60;;;;;;5044834;28;20064;-43
2022/03/26 00:53:23;;;;;;;28.23;14.30;;;12.10;35.60;;;;;;5042689;28;20497;-44
2022/03/26 00:55:50;;;;;;;29.83;15.20;;;12.10;35.70;;;;;;5043125;28;20053;-43
2022/03/26 00:58:18;;;;;;;29.08;13.65;;;12.00;35.80;;;;;;5041162;28;20490;-43
2022/03/26 01:00:46;;;;;;;28.10;14.70;;;12.00;35.80;;;;;;5042729;28;20064;-43
2022/03/26 01:03:16;;;;;;;28.67;14.70;;;12.00;35.80;;;;;;5044233;28;20068;-43
2022/03/26 01:05:44;;;;;;;30.08;14.23;;;12.00;36.00;;;;;;5041392;28;20080;-43
2022/03/26 01:08:12;;;;;;;35.58;14.98;;;12.00;36.10;;;;;;5041697;28;20056;-44
2022/03/26 01:10:41;;;;;;;32.55;16.00;;;11.90;36.10;;;;;;5043108;28;20045;-43
2022/03/26 01:13:09;;;;;;;31.83;16.52;;;11.90;36.20;;;;;;5043767;28;20049;-45
2022/03/26 01:15:36;;;;;;;29.27;14.50;;;11.90;36.30;;;;;;5041003;28;20052;-46
2022/03/26 01:18:04;;;;;;;31.17;16.15;;;11.90;36.40;;;;;;5042860;28;20068;-44
2022/03/26 01:20:33;;;;;;;29.13;15.18;;;11.90;36.50;;;;;;5043182;28;20815;-43
2022/03/26 01:23:01;;;;;;;26.15;14.20;;;11.80;36.50;;;;;;5042021;28;20061;-47
2022/03/26 01:25:28;;;;;;;30.13;14.80;;;11.80;36.50;;;;;;5041929;28;20053;-43
2022/03/26 01:27:56;;;;;;;31.92;14.90;;;11.80;36.60;;;;;;5042493;28;20515;-43
2022/03/26 01:30:24;;;;;;;36.10;15.27;;;11.70;36.60;;;;;;5041687;28;20404;-43
2022/03/26 01:32:52;;;;;;;32.00;16.10;;;11.70;36.70;;;;;;5043865;28;20053;-43
2022/03/26 01:35:20;;;;;;;31.40;15.60;;;11.70;36.70;;;;;;5040220;28;20048;-43
2022/03/26 01:37:49;;;;;;;34.80;15.27;;;11.70;36.80;;;;;;5041175;28;20057;-43
2022/03/26 01:40:17;;;;;;;36.03;17.30;;;11.60;36.80;;;;;;5042417;28;20053;-45
2022/03/26 01:42:44;;;;;;;35.20;16.73;;;11.60;36.90;;;;;;5041602;28;20056;-45
2022/03/26 01:45:12;;;;;;;35.63;17.17;;;11.60;37.00;;;;;;5040295;28;20053;-47
2022/03/26 01:47:41;;;;;;;36.70;16.60;;;11.60;37.10;;;;;;5042699;28;20418;-43
2022/03/26 01:50:09;;;;;;;36.88;18.00;;;11.50;37.10;;;;;;5042634;28;20509;-43
2022/03/26 01:52:36;;;;;;;31.48;16.48;;;11.50;37.30;;;;;;5042074;28;20053;-43
2022/03/26 01:55:06;;;;;;;31.50;16.58;;;11.50;37.40;;;;;;5040906;28;20057;-43
2022/03/26 01:57:34;;;;;;;31.77;16.30;;;11.50;37.50;;;;;;5041099;28;20045;-43
2022/03/26 02:00:02;;;;;;;33.78;17.05;;;11.50;37.50;;;;;;5041797;28;20500;-43
2022/03/26 02:02:30;;;;;;;30.08;15.85;;;11.40;37.50;;;;;;5042580;28;20500;-43
2022/03/26 02:04:57;;;;;;;31.45;16.92;;;11.40;37.60;;;;;;5041210;28;20063;-43
2022/03/26 02:07:25;;;;;;;40.55;17.85;;;11.40;37.60;;;;;;5041055;28;20048;-44
2022/03/26 02:09:52;;;;;;;42.03;19.50;;;11.40;37.80;;;;;;5042623;28;20053;-43
2022/03/26 02:12:25;;;;;;;32.65;16.95;;;11.30;37.90;;;;;;5042426;28;20123;-43
2022/03/26 02:14:53;;;;;;;37.17;17.05;;;11.30;38.00;;;;;;5038558;28;20053;-45
2022/03/26 02:17:21;;;;;;;35.10;16.20;;;11.30;37.90;;;;;;5040228;28;20057;-43
2022/03/26 02:19:51;;;;;;;32.00;16.55;;;11.20;37.90;;;;;;5040987;28;20061;-43
2022/03/26 02:22:20;;;;;;;33.28;17.23;;;11.20;38.00;;;;;;5040924;28;20447;-45
2022/03/26 02:24:47;;;;;;;35.40;18.10;;;11.20;38.00;;;;;;5040970;28;20056;-43
2022/03/26 02:27:15;;;;;;;34.85;17.63;;;11.20;38.10;;;;;;5041478;28;20444;-43
2022/03/26 02:29:43;;;;;;;38.70;17.15;;;11.20;38.20;;;;;;5040806;28;20064;-43
2022/03/26 02:32:11;;;;;;;32.42;16.65;;;11.10;38.20;;;;;;5041849;28;20057;-43
2022/03/26 02:34:39;;;;;;;33.75;16.38;;;11.10;38.20;;;;;;5039546;28;20056;-44
2022/03/26 02:37:07;;;;;;;35.33;17.13;;;11.10;38.30;;;;;;5037682;28;20057;-45
2022/03/26 02:39:35;;;;;;;29.52;15.85;;;11.00;38.40;;;;;;5039431;28;20067;-43
2022/03/26 02:42:02;;;;;;;34.22;16.85;;;11.00;38.40;;;;;;5040769;28;20060;-44
2022/03/26 02:44:30;;;;;;;31.33;15.60;;;11.00;38.50;;;;;;5039294;28;20377;-43
2022/03/26 02:46:57;;;;;;;32.65;16.63;;;10.90;38.50;;;;;;5040632;28;20373;-43
2022/03/26 02:49:25;;;;;;;42.50;19.63;;;10.90;38.70;;;;;;5041491;28;20071;-43
2022/03/26 02:51:52;;;;;;;32.72;15.00;;;10.80;38.70;;;;;;5041487;28;20493;-43
2022/03/26 02:54:21;;;;;;;31.83;15.50;;;10.80;38.70;;;;;;5039244;28;20049;-45
2022/03/26 02:56:50;;;;;;;31.02;16.38;;;10.80;38.70;;;;;;5039068;28;20060;-45
2022/03/26 02:59:18;;;;;;;36.83;17.75;;;10.80;38.70;;;;;;5040931;28;20057;-43
2022/03/26 03:01:46;;;;;;;34.08;16.33;;;10.70;38.80;;;;;;5040430;28;20061;-43
2022/03/26 03:04:13;;;;;;;29.85;16.02;;;10.70;38.80;;;;;;5038967;28;20052;-45
2022/03/26 03:06:41;;;;;;;31.75;16.15;;;10.70;38.90;;;;;;5040917;28;20060;-43
2022/03/26 03:09:09;;;;;;;35.50;16.15;;;10.60;38.90;;;;;;5040796;28;20052;-43
2022/03/26 03:11:38;;;;;;;31.33;15.75;;;10.60;38.90;;;;;;5041761;28;20530;-43
2022/03/26 03:14:06;;;;;;;30.38;15.15;;;10.60;39.00;;;;;;5038233;28;20060;-43
2022/03/26 03:16:34;;;;;;;37.83;17.42;;;10.50;38.90;;;;;;5041182;28;20116;-44
2022/03/26 03:19:02;;;;;;;31.50;15.95;;;10.50;39.10;;;;;;5040326;28;20057;-44
2022/03/26 03:21:29;;;;;;;37.28;16.92;;;10.50;39.10;;;;;;5041881;28;20061;-44
2022/03/26 03:23:57;;;;;;;33.42;16.17;;;10.50;39.20;;;;;;5038359;28;20744;-46
2022/03/26 03:26:25;;;;;;;43.95;18.55;;;10.40;39.10;;;;;;5041551;28;20052;-43
2022/03/26 03:28:54;;;;;;;42.90;19.17;;;10.40;39.30;;;;;;5041237;28;20420;-43
2022/03/26 03:31:21;;;;;;;36.08;17.23;;;10.40;39.40;;;;;;5039274;28;20056;-43
2022/03/26 03:33:49;;;;;;;35.03;18.00;;;10.40;39.40;;;;;;5039244;28;20053;-43
2022/03/26 03:36:16;;;;;;;32.03;17.25;;;10.40;39.50;;;;;;5041129;28;20424;-43
2022/03/26 03:38:43;;;;;;;33.58;18.17;;;10.30;39.50;;;;;;5041201;28;20629;-43
2022/03/26 03:41:11;;;;;;;38.42;18.98;;;10.30;39.50;;;;;;5041610;28;20064;-43
2022/03/26 03:43:38;;;;;;;35.00;16.40;;;10.30;39.60;;;;;;5038668;28;20064;-43
2022/03/26 03:46:07;;;;;;;40.50;18.85;;;10.20;39.70;;;;;;5039551;28;20215;-44
2022/03/26 03:48:35;;;;;;;42.83;20.02;;;10.20;39.90;;;;;;5040217;28;20053;-43
2022/03/26 03:51:02;;;;;;;33.10;16.90;;;10.20;40.10;;;;;;5041717;28;20064;-43
2022/03/26 03:53:30;;;;;;;41.38;18.15;;;10.20;40.10;;;;;;5039077;28;20068;-43
2022/03/26 03:55:57;;;;;;;35.00;17.58;;;10.20;40.10;;;;;;5037731;28;20055;-44
2022/03/26 03:58:25;;;;;;;31.65;16.02;;;10.10;40.10;;;;;;5040855;28;20060;-43
2022/03/26 04:00:52;;;;;;;39.95;18.02;;;10.10;40.10;;;;;;5039291;28;20504;-45
2022/03/26 04:03:21;;;;;;;34.28;17.35;;;10.10;40.20;;;;;;5039150;28;20068;-44
2022/03/26 04:05:48;;;;;;;33.10;18.20;;;10.10;40.30;;;;;;5038708;28;20064;-43
2022/03/26 04:08:16;;;;;;;40.10;17.65;;;10.00;40.30;;;;;;5038952;28;20064;-43
2022/03/26 04:10:43;;;;;;;31.98;18.02;;;10.00;40.30;;;;;;5040082;28;20053;-43
2022/03/26 04:13:11;;;;;;;35.80;19.65;;;10.00;40.50;;;;;;5040542;28;20049;-46
2022/03/26 04:15:39;;;;;;;33.45;17.92;;;9.90;40.40;;;;;;5040791;28;20064;-43
2022/03/26 04:18:07;;;;;;;37.83;18.90;;;9.90;40.50;;;;;;5043401;28;20532;-43
2022/03/26 04:20:37;;;;;;;37.63;18.95;;;9.90;40.50;;;;;;5044027;28;20408;-43
2022/03/26 04:23:04;;;;;;;33.80;17.30;;;9.80;40.70;;;;;;5040435;28;20495;-43
2022/03/26 04:25:32;;;;;;;34.83;18.10;;;9.80;40.70;;;;;;5044230;28;20049;-43
2022/03/26 04:27:59;;;;;;;42.67;20.02;;;9.80;40.80;;;;;;5045377;28;20060;-43
2022/03/26 04:30:27;;;;;;;37.95;19.98;;;9.80;41.00;;;;;;5045103;28;20068;-48
2022/03/26 04:32:54;;;;;;;37.83;18.17;;;9.70;41.00;;;;;;5043024;28;20055;-43
2022/03/26 04:35:22;;;;;;;35.35;19.10;;;9.70;41.00;;;;;;5041212;28;20408;-47
2022/03/26 04:37:55;;;;;;;45.50;20.23;;;9.70;41.10;;;;;;5037534;28;20048;-45
2022/03/26 04:40:23;;;;;;;34.20;16.88;;;9.70;41.20;;;;;;5040133;28;20053;-45
2022/03/26 04:42:51;;;;;;;43.03;19.65;;;9.60;41.10;;;;;;5041333;28;20057;-43
2022/03/26 04:45:18;;;;;;;41.85;19.58;;;9.70;41.30;;;;;;5042210;28;20061;-43
2022/03/26 04:47:46;;;;;;;41.70;21.23;;;9.60;41.40;;;;;;5042762;28;20408;-43
2022/03/26 04:50:13;;;;;;;47.17;22.65;;;9.60;41.80;;;;;;5044335;28;20424;-43
2022/03/26 04:52:41;;;;;;;42.10;20.30;;;9.50;41.90;;;;;;5041063;28;20052;-48
2022/03/26 04:55:12;;;;;;;40.67;20.50;;;9.50;41.80;;;;;;5042484;28;20061;-44
2022/03/26 04:57:40;;;;;;;42.58;20.25;;;9.40;41.90;;;;;;5042293;28;20441;-43
2022/03/26 05:00:11;;;;;;;31.13;17.55;;;9.40;41.80;;;;;;5042512;28;20057;-48
2022/03/26 05:02:39;;;;;;;38.33;18.70;;;9.30;41.90;;;;;;5042978;28;20056;-45
2022/03/26 05:05:07;;;;;;;40.33;18.58;;;9.30;42.00;;;;;;5042647;28;20053;-43
2022/03/26 05:07:46;;;;;;;39.03;18.90;;;9.20;42.10;;;;;;5040341;28;20390;-43
2022/03/26 05:10:17;;;;;;;38.85;18.50;;;9.20;42.20;;;;;;5041682;28;20102;-43
2022/03/26 05:12:46;;;;;;;35.35;18.40;;;9.10;42.20;;;;;;5041931;28;20057;-46
2022/03/26 05:15:14;;;;;;;37.38;19.25;;;9.10;42.20;;;;;;5040503;28;20420;-43
2022/03/26 05:17:42;;;;;;;38.10;18.40;;;9.10;42.20;;;;;;5038191;28;20121;-46
2022/03/26 05:20:12;;;;;;;43.08;20.58;;;9.10;42.20;;;;;;5043972;28;20409;-44
2022/03/26 05:22:41;;;;;;;38.67;18.88;;;9.10;42.40;;;;;;5041865;28;20060;-44
2022/03/26 05:25:09;;;;;;;36.75;18.20;;;9.00;42.50;;;;;;5040211;28;20053;-43
2022/03/26 05:27:38;;;;;;;43.08;19.30;;;9.00;42.50;;;;;;5042514;28;20512;-44
2022/03/26 05:30:07;;;;;;;42.03;19.65;;;9.00;42.70;;;;;;5042219;28;20053;-43
2022/03/26 05:32:35;;;;;;;39.50;19.63;;;9.00;42.60;;;;;;5042196;28;20057;-43
2022/03/26 05:35:03;;;;;;;39.85;20.48;;;8.90;42.60;;;;;;5038161;28;20061;-43
2022/03/26 05:37:31;;;;;;;39.03;19.85;;;8.90;42.60;;;;;;5040378;28;20438;-43
2022/03/26 05:39:58;;;;;;;40.50;19.70;;;8.90;42.70;;;;;;5042838;28;20057;-43
2022/03/26 05:42:26;;;;;;;39.60;20.15;;;8.90;42.80;;;;;;5042226;28;20060;-45
2022/03/26 05:44:54;;;;;;;45.33;22.02;;;8.90;42.90;;;;;;5040792;28;20513;-43
2022/03/26 05:47:23;;;;;;;42.92;21.63;;;8.90;42.90;;;;;;5042154;28;20053;-43
2022/03/26 05:49:51;;;;;;;40.75;20.38;;;8.90;43.00;;;;;;5041656;28;20053;-43
2022/03/26 05:52:18;;;;;;;38.83;18.63;;;8.90;43.10;;;;;;5039182;28;20061;-44
2022/03/26 05:54:46;;;;;;;45.60;21.15;;;8.80;43.10;;;;;;5038894;28;20412;-43
2022/03/26 05:57:13;;;;;;;58.28;22.80;;;8.80;43.10;;;;;;5043927;28;20408;-43
2022/03/26 05:59:41;;;;;;;39.75;19.20;;;8.90;43.30;;;;;;5041627;28;20063;-43
2022/03/26 06:02:11;;;;;;;45.25;21.75;;;8.90;43.30;;;;;;5040057;28;20431;-43
2022/03/26 06:04:38;;;;;;;46.38;22.80;;;8.80;43.40;;;;;;5041042;28;20082;-43
2022/03/26 06:07:07;;;;;;;42.95;20.02;;;8.90;43.40;;;;;;5040006;28;20651;-44
2022/03/26 06:09:34;;;;;;;41.03;20.45;;;8.90;43.40;;;;;;5039663;28;20493;-43
2022/03/26 06:12:02;;;;;;;42.03;19.20;;;8.90;43.50;;;;;;5037472;28;20795;-43
2022/03/26 06:14:30;;;;;;;37.55;19.05;;;8.90;43.50;;;;;;5037481;28;20057;-43
2022/03/26 06:16:57;;;;;;;43.55;21.50;;;8.90;43.60;;;;;;5040884;28;20049;-43
2022/03/26 06:19:26;;;;;;;49.05;21.60;;;8.90;43.80;;;;;;5038189;28;20053;-45
2022/03/26 06:21:54;;;;;;;42.75;20.80;;;8.90;44.50;;;;;;5038440;28;20052;-43
2022/03/26 06:24:22;;;;;;;41.22;20.48;;;9.00;44.10;;;;;;5037499;28;20052;-43
2022/03/26 06:26:49;;;;;;;45.35;20.25;;;9.00;44.10;;;;;;5036217;28;20052;-45
2022/03/26 06:29:17;;;;;;;45.00;20.70;;;9.00;44.00;;;;;;5037772;28;20128;-44
2022/03/26 06:31:45;;;;;;;48.50;22.20;;;9.10;44.10;;;;;;5035987;28;20057;-43
2022/03/26 06:34:13;;;;;;;39.13;19.75;;;9.10;44.20;;;;;;5037960;28;20056;-43
2022/03/26 06:36:42;;;;;;;43.70;19.65;;;9.10;44.20;;;;;;5040186;28;20060;-43
2022/03/26 06:39:10;;;;;;;40.85;19.92;;;9.10;44.30;;;;;;5041725;28;20049;-45
2022/03/26 06:41:39;;;;;;;44.15;21.20;;;9.20;44.40;;;;;;5041019;28;20049;-43
2022/03/26 06:44:08;;;;;;;44.20;20.65;;;9.20;44.50;;;;;;5037608;28;20056;-43
2022/03/26 06:46:37;;;;;;;36.53;18.65;;;9.20;44.60;;;;;;5040058;28;20064;-45
2022/03/26 06:49:06;;;;;;;39.60;19.23;;;9.30;44.60;;;;;;5038062;28;20057;-43
2022/03/26 06:51:33;;;;;;;35.67;17.42;;;9.40;44.40;;;;;;5037848;28;20057;-43
2022/03/26 06:54:02;;;;;;;42.95;20.35;;;9.40;44.40;;;;;;5035889;28;20061;-43
2022/03/26 06:56:30;;;;;;;46.05;21.10;;;9.40;44.40;;;;;;5041176;28;20064;-42
2022/03/26 06:58:57;;;;;;;50.72;22.10;;;9.50;44.50;;;;;;5040261;28;20060;-44
2022/03/26 07:01:25;;;;;;;43.47;22.33;;;9.50;44.60;;;;;;5037089;28;20057;-43
2022/03/26 07:03:52;;;;;;;40.05;20.63;;;9.60;44.60;;;;;;5039105;28;20056;-43
2022/03/26 07:06:20;;;;;;;39.03;20.15;;;9.60;44.60;;;;;;5042025;28;20060;-43
2022/03/26 07:08:47;;;;;;;45.28;21.60;;;9.70;44.50;;;;;;5040203;28;20049;-43
2022/03/26 07:11:16;;;;;;;45.40;20.80;;;9.70;44.60;;;;;;5038367;28;20053;-44
2022/03/26 07:13:44;;;;;;;38.00;18.83;;;9.80;44.60;;;;;;5036540;28;20053;-43
2022/03/26 07:16:12;;;;;;;40.63;21.70;;;9.80;44.60;;;;;;5040967;28;20049;-45
2022/03/26 07:18:39;;;;;;;44.80;22.35;;;9.90;44.80;;;;;;5040259;28;20060;-43
2022/03/26 07:21:08;;;;;;;47.67;22.70;;;9.90;44.80;;;;;;5039664;28;20064;-43
2022/03/26 07:23:35;;;;;;;49.88;24.10;;;10.00;44.90;;;;;;5036035;28;20053;-43
2022/03/26 07:26:04;;;;;;;50.92;23.70;;;10.00;44.80;;;;;;5035995;28;20053;-43
2022/03/26 07:28:33;;;;;;;49.67;22.85;;;10.10;45.10;;;;;;5040624;28;20480;-43
2022/03/26 07:31:00;;;;;;;46.03;22.20;;;10.10;45.10;;;;;;5034517;28;20524;-43
2022/03/26 07:33:28;;;;;;;40.17;21.90;;;10.20;45.10;;;;;;5039741;28;20060;-43
2022/03/26 07:35:56;;;;;;;41.03;22.60;;;10.20;45.00;;;;;;5037287;28;20062;-43
2022/03/26 07:38:23;;;;;;;40.10;21.27;;;10.30;44.80;;;;;;5038198;28;20080;-43
2022/03/26 07:40:52;;;;;;;43.95;22.45;;;10.30;44.70;;;;;;5041515;28;20057;-43
2022/03/26 07:43:19;;;;;;;52.72;24.60;;;10.40;44.70;;;;;;5039702;28;20421;-43
2022/03/26 07:45:48;;;;;;;44.83;23.23;;;10.40;44.70;;;;;;5032471;28;20132;-43
2022/03/26 07:48:16;;;;;;;55.50;23.83;;;10.50;44.90;;;;;;5036634;28;20049;-43
2022/03/26 07:50:43;;;;;;;41.83;21.73;;;10.60;44.80;;;;;;5042984;28;20049;-43
2022/03/26 07:53:12;;;;;;;45.97;21.73;;;10.60;44.70;;;;;;5040937;28;20056;-43
2022/03/26 07:55:40;;;;;;;49.90;24.23;;;10.70;44.60;;;;;;5040918;28;20057;-43
2022/03/26 07:58:08;;;;;;;41.55;21.20;;;10.70;44.60;;;;;;5043411;28;20052;-43
2022/03/26 08:00:36;;;;;;;41.97;20.80;;;10.80;44.60;;;;;;5025365;28;20049;-43
2022/03/26 08:03:05;;;;;;;36.60;21.00;;;10.80;44.50;;;;;;5043256;28;20049;-43
2022/03/26 08:05:33;;;;;;;43.50;22.15;;;10.90;44.40;;;;;;5038510;28;21758;-43
2022/03/26 08:08:00;;;;;;;48.80;23.83;;;11.00;44.40;;;;;;5043374;28;20550;-43
2022/03/26 08:10:28;;;;;;;50.08;24.55;;;11.10;44.70;;;;;;5040803;28;20053;-44
2022/03/26 08:12:56;;;;;;;47.85;22.67;;;11.10;44.90;;;;;;5044563;28;20049;-45
2022/03/26 08:15:23;;;;;;;46.20;22.13;;;11.20;44.90;;;;;;5038967;28;20492;-43
2022/03/26 08:17:51;;;;;;;52.92;23.38;;;11.30;44.80;;;;;;5041037;28;20063;-43
2022/03/26 08:20:20;;;;;;;48.38;22.65;;;11.40;44.90;;;;;;5040334;28;20480;-43
2022/03/26 08:22:48;;;;;;;42.97;22.75;;;11.40;44.60;;;;;;5037243;28;20053;-43
2022/03/26 08:26:19;;;;;;;46.35;22.02;;;11.50;44.40;;;;;;5042134;28;20519;-43
2022/03/26 08:28:06;;;;;;;43.53;22.95;;;11.60;44.20;;;;;;5042339;28;20523;-43
2022/03/26 08:30:34;;;;;;;57.47;27.77;;;11.70;44.40;;;;;;5040792;28;20412;-43
2022/03/26 08:33:02;;;;;;;49.92;25.10;;;11.80;44.40;;;;;;5042934;28;21114;-44
2022/03/26 08:35:34;;;;;;;47.97;24.05;;;11.90;44.30;;;;;;5041504;28;20053;-43
2022/03/26 08:38:02;;;;;;;48.97;21.95;;;12.00;44.20;;;;;;5042977;28;20053;-43
2022/03/26 08:40:30;;;;;;;52.50;24.67;;;12.00;44.10;;;;;;5042620;28;20060;-43
2022/03/26 08:42:58;;;;;;;52.55;24.30;;;12.10;44.50;;;;;;5041736;28;20052;-45
2022/03/26 08:45:26;;;;;;;55.38;26.40;;;12.20;44.50;;;;;;5039505;28;20059;-43
2022/03/26 08:47:54;;;;;;;54.28;26.77;;;12.30;44.60;;;;;;5041511;28;20076;-43
2022/03/26 08:50:22;;;;;;;55.92;26.92;;;12.50;44.80;;;;;;5040518;28;20057;-43
2022/03/26 08:52:51;;;;;;;52.75;24.63;;;12.60;44.70;;;;;;5038298;28;20073;-47
2022/03/26 08:55:19;;;;;;;54.42;25.17;;;12.70;44.50;;;;;;5040334;28;20053;-43
2022/03/26 08:57:47;;;;;;;62.10;26.88;;;12.80;44.30;;;;;;5042019;28;20519;-46
2022/03/26 09:00:17;;;;;;;69.10;28.20;;;12.90;44.10;;;;;;5034601;28;20045;-44
2022/03/26 09:02:45;;;;;;;55.22;25.58;;;13.10;44.00;;;;;;5041667;28;20056;-43
2022/03/26 09:05:13;;;;;;;61.65;27.38;;;13.20;43.80;;;;;;5040536;28;20052;-44
2022/03/26 09:07:41;;;;;;;55.03;27.17;;;13.30;43.50;;;;;;5042097;28;20056;-48
2022/03/26 09:10:10;;;;;;;50.80;25.63;;;13.50;43.30;;;;;;5037521;28;20060;-43
2022/03/26 09:12:38;;;;;;;51.70;25.58;;;13.60;43.40;;;;;;5041921;28;20500;-43
2022/03/26 09:15:08;;;;;;;61.17;28.15;;;13.80;43.20;;;;;;5039998;28;20056;-43
2022/03/26 09:17:37;;;;;;;49.00;24.10;;;13.80;42.90;;;;;;5041576;28;20051;-43
2022/03/26 09:20:06;;;;;;;55.28;26.33;;;14.00;42.90;;;;;;5042354;28;20412;-44
2022/03/26 09:22:34;;;;;;;53.88;27.13;;;14.10;42.70;;;;;;5040111;28;20049;-43
2022/03/26 09:25:02;;;;;;;52.03;25.92;;;14.20;42.30;;;;;;5040084;28;20515;-43
2022/03/26 09:27:31;;;;;;;52.72;27.10;;;14.30;42.10;;;;;;5042089;28;20056;-43
2022/03/26 09:29:59;;;;;;;60.03;26.48;;;14.40;42.60;;;;;;5041626;28;20420;-43
2022/03/26 09:32:27;;;;;;;53.72;25.65;;;14.50;42.40;;;;;;5041220;28;20049;-43
2022/03/26 09:34:55;;;;;;;64.18;28.52;;;14.60;42.10;;;;;;5040625;28;20057;-46
2022/03/26 09:37:22;;;;;;;50.22;25.85;;;14.80;42.00;;;;;;5042580;28;20057;-43
2022/03/26 09:39:50;;;;;;;50.72;24.48;;;14.90;42.00;;;;;;5042440;28;20056;-43
2022/03/26 09:42:17;;;;;;;52.63;23.45;;;14.90;41.70;;;;;;5044189;28;20064;-43
2022/03/26 09:44:47;;;;;;;54.13;24.50;;;15.00;41.50;;;;;;5038587;28;20053;-43
2022/03/26 09:47:15;;;;;;;50.20;24.23;;;15.10;41.60;;;;;;5041572;28;20068;-43
2022/03/26 09:49:42;;;;;;;49.40;25.17;;;15.20;41.90;;;;;;5043087;28;20052;-45
2022/03/26 09:52:10;;;;;;;52.05;22.60;;;15.30;41.70;;;;;;5040505;28;20408;-43
2022/03/26 09:54:38;;;;;;;53.17;25.38;;;15.30;41.20;;;;;;5038359;28;20060;-44
2022/03/26 09:57:07;;;;;;;50.38;23.98;;;15.40;40.80;;;;;;5043412;28;20060;-43
2022/03/26 09:59:35;;;;;;;53.28;25.73;;;15.40;40.70;;;;;;5040524;28;20049;-43
2022/03/26 10:02:05;;;;;;;53.58;25.67;;;15.50;40.70;;;;;;5041475;28;20068;-43
2022/03/26 10:04:38;;;;;;;44.28;24.27;;;15.60;40.40;;;;;;5037721;28;20053;-44
2022/03/26 10:07:06;;;;;;;52.65;25.90;;;15.60;40.40;;;;;;5037200;28;20048;-44
2022/03/26 10:09:36;;;;;;;55.85;28.30;;;15.70;40.50;;;;;;5039465;28;20722;-43
2022/03/26 10:12:06;;;;;;;50.80;27.27;;;15.70;40.40;;;;;;5039567;28;20401;-43
2022/03/26 10:14:42;;;;;;;50.63;24.40;;;15.80;40.20;;;;;;5038325;28;20041;-44
2022/03/26 10:17:17;;;;;;;47.85;23.83;;;15.80;39.90;;;;;;5039668;28;20061;-44
2022/03/26 10:19:46;;;;;;;45.65;23.83;;;15.90;39.50;;;;;;5041064;28;20057;-43
2022/03/26 10:22:29;;;;;;;44.53;23.25;;;16.00;39.40;;;;;;5039780;28;20052;-44
2022/03/26 10:24:57;;;;;;;49.58;24.27;;;16.00;39.30;;;;;;5037745;28;20424;-43
2022/03/26 10:27:25;;;;;;;44.00;23.08;;;16.00;39.60;;;;;;5037064;28;20057;-45
2022/03/26 10:29:55;;;;;;;41.88;21.83;;;16.00;38.90;;;;;;5039227;28;20500;-43
2022/03/26 10:32:39;;;;;;;46.42;22.88;;;16.00;38.80;;;;;;5042540;28;20056;-50
2022/03/26 10:35:22;;;;;;;47.75;20.80;;;16.10;38.50;;;;;;5041209;28;20057;-43
2022/03/26 10:37:58;;;;;;;44.80;22.50;;;16.10;37.80;;;;;;5037843;28;20053;-43
2022/03/26 10:40:28;;;;;;;40.55;20.55;;;16.20;38.10;;;;;;5041226;28;20052;-46
2022/03/26 10:43:13;;;;;;;42.15;20.35;;;16.20;38.30;;;;;;5041761;28;20045;-43
2022/03/26 10:45:46;;;;;;;;;;;16.20;38.30;;;;;;5039998;28;20064;-46
2022/03/26 10:48:15;;;;;;;39.13;19.63;;;16.30;38.30;;;;;;5041944;28;20308;-45
2022/03/26 10:50:44;;;;;;;44.95;21.02;;;16.30;38.20;;;;;;5041693;28;20515;-43
2022/03/26 10:53:14;;;;;;;45.65;21.75;;;16.30;38.30;;;;;;5039662;28;20420;-43
2022/03/26 10:55:43;;;;;;;37.15;19.20;;;16.30;38.30;;;;;;5039636;28;20064;-43
2022/03/26 10:58:11;;;;;;;35.25;19.30;;;16.40;38.30;;;;;;5042274;28;20064;-44
2022/03/26 11:00:38;;;;;;;40.72;19.90;;;16.40;38.30;;;;;;5040784;28;20520;-46
2022/03/26 11:03:06;;;;;;;40.25;19.85;;;16.50;38.30;;;;;;5040925;28;20057;-46
2022/03/26 11:05:37;;;;;;;45.15;20.52;;;16.50;38.30;;;;;;5040092;28;20049;-45
2022/03/26 11:08:06;;;;;;;34.50;19.23;;;16.50;38.10;;;;;;5040220;28;20515;-43
2022/03/26 11:10:34;;;;;;;39.35;19.27;;;16.60;38.30;;;;;;5042335;28;20053;-43
2022/03/26 11:13:03;;;;;;;39.03;19.98;;;16.70;38.50;;;;;;5041960;28;20053;-43
2022/03/26 11:15:34;;;;;;;42.17;22.05;;;16.70;38.40;;;;;;5040363;28;20053;-46
2022/03/26 11:18:18;;;;;;;42.10;21.63;;;16.80;38.40;;;;;;5040473;28;20060;-43
2022/03/26 11:21:13;;;;;;;40.55;20.77;;;16.80;38.00;;;;;;5040009;28;20063;-43
2022/03/26 11:23:50;;;;;;;;;;;16.90;37.50;;;;;;5004709;28;20056;-44
2022/03/26 11:26:27;;;;;;;37.15;18.73;;;17.00;37.80;;;;;;5043031;28;19929;-44
2022/03/26 11:29:10;;;;;;;45.08;20.60;;;17.00;37.80;;;;;;5042393;28;20053;-43
2022/03/26 11:31:46;;;;;;;40.10;20.90;;;17.10;38.20;;;;;;5043592;28;20088;-43
2022/03/26 11:34:17;;;;;;;32.97;19.67;;;17.20;37.80;;;;;;5044163;28;20496;-43
2022/03/26 11:36:46;;;;;;;44.55;22.75;;;17.30;37.80;;;;;;5043946;28;20416;-44
2022/03/26 11:39:16;;;;;;;43.60;22.42;;;17.30;37.10;;;;;;5044755;28;20053;-45
2022/03/26 11:41:44;;;;;;;39.88;22.00;;;17.40;37.80;;;;;;5042432;28;20052;-43
2022/03/26 11:44:13;;;;;;;40.13;21.75;;;17.40;37.70;;;;;;5039478;28;20057;-45
2022/03/26 11:52:31;;;;;;;48.22;23.10;;;17.70;36.30;;;;;;5006008;28;20049;-43
2022/03/26 11:55:04;;;;;;;40.50;21.52;;;17.70;36.10;;;;;;5042182;28;20053;-43
2022/03/26 11:57:32;;;;;;;40.70;22.00;;;17.80;36.50;;;;;;5044539;28;20053;-43
2022/03/26 12:00:01;;;;;;;39.72;20.88;;;17.80;36.60;;;;;;5045214;28;20063;-42
2022/03/26 12:02:34;;;;;;;41.90;21.40;;;17.90;36.50;;;;;;5040254;28;20049;-43
2022/03/26 12:07:48;;;;;;;39.17;22.25;;;18.00;36.60;;;;;;5040963;28;20056;-43
2022/03/26 12:10:21;;;;;;;40.95;20.42;;;18.00;36.00;;;;;;5045362;28;20052;-43
2022/03/26 12:12:50;;;;;;;40.00;22.13;;;18.10;36.00;;;;;;5043719;28;20057;-43
2022/03/26 12:15:33;;;;;;;48.65;21.75;;;18.10;35.60;;;;;;5041587;28;20053;-43
2022/03/26 12:18:14;;;;;;;41.95;21.67;;;18.10;35.80;;;;;;5041948;28;20497;-43
2022/03/26 12:20:43;;;;;;;43.85;21.73;;;18.20;35.30;;;;;;5045033;28;20052;-45
2022/03/26 12:23:14;;;;;;;43.33;21.05;;;18.30;35.80;;;;;;5041581;28;20052;-43
2022/03/26 12:25:47;;;;;;;38.15;19.65;;;18.30;35.60;;;;;;5042574;28;20519;-44
2022/03/26 12:28:16;;;;;;;41.15;19.65;;;18.40;35.70;;;;;;5044126;28;20393;-44
2022/03/26 12:30:48;;;;;;;38.78;20.05;;;18.40;35.60;;;;;;5042604;28;20444;-43
2022/03/26 12:33:16;;;;;;;42.28;19.58;;;18.50;35.50;;;;;;5042819;28;20496;-44
2022/03/26 12:35:45;;;;;;;32.35;18.00;;;18.50;34.70;;;;;;5040991;28;20068;-45
2022/03/26 12:38:15;;;;;;;39.20;19.88;;;18.60;34.90;;;;;;5042345;28;20053;-43
2022/03/26 12:40:49;;;;;;;33.90;18.30;;;18.60;35.10;;;;;;5037843;28;20044;-44
2022/03/26 12:43:17;;;;;;;35.60;17.70;;;18.70;34.90;;;;;;5043930;28;20080;-43
2022/03/26 12:45:44;;;;;;;41.50;19.23;;;18.70;34.90;;;;;;5037719;28;20056;-43
2022/03/26 12:48:13;;;;;;;34.88;16.52;;;18.70;34.20;;;;;;5042292;28;20048;-46